Time,TemperatureF,DewpointF,PressureIn,WindDirection,WindDirectionDegrees,WindSpeedMPH,WindSpeedGustMPH,Humidity,HourlyPrecipIn,Conditions,Clouds,dailyrainin,SoftwareType,DateUTC
2013-02-15 00:00:00,38.9,37.6,30.05,North,349,0.0,0.0,95,0.00,,,0.00,Wunderground v.1.15,2013-02-15 06:00:00,
2013-02-15 00:10:00,38.5,37.2,30.05,North,349,0.0,0.0,95,0.00,,,0.00,Wunderground v.1.15,2013-02-15 06:10:00,
2013-02-15 00:20:00,38.3,37.0,30.05,North,349,0.0,0.0,95,0.00,,,0.00,Wunderground v.1.15,2013-02-15 06:20:00,
2013-02-15 00:30:00,38.3,37.0,30.05,North,349,0.0,0.0,95,0.00,,,0.00,Wunderground v.1.15,2013-02-15 06:30:00,
2013-02-15 00:40:00,38.3,37.0,30.05,North,349,0.0,0.0,95,0.00,,,0.00,Wunderground v.1.15,2013-02-15 06:40:00,
2013-02-15 00:45:00,38.3,37.0,30.05,North,349,0.0,0.0,95,0.00,,,0.00,Wunderground v.1.15,2013-02-15 06:45:00,
2013-02-15 00:55:00,37.9,36.6,30.05,North,349,0.0,0.0,95,0.00,,,0.00,Wunderground v.1.15,2013-02-15 06:55:00,
2013-02-15 01:00:00,37.8,36.5,30.05,North,349,0.0,0.0,95,0.00,,,0.00,Wunderground v.1.15,2013-02-15 07:00:00,
2013-02-15 01:10:00,37.8,36.5,30.05,North,349,0.0,0.0,95,0.00,,,0.00,Wunderground v.1.15,2013-02-15 07:10:00,
2013-02-15 01:15:00,37.8,36.5,30.04,North,349,0.0,0.0,95,0.00,,,0.00,Wunderground v.1.15,2013-02-15 07:15:00,
2013-02-15 01:25:00,37.5,36.2,30.04,North,349,0.0,0.0,95,0.00,,,0.00,Wunderground v.1.15,2013-02-15 07:25:00,
2013-02-15 01:30:00,37.3,36.0,30.05,North,349,0.0,0.0,95,0.00,,,0.00,Wunderground v.1.15,2013-02-15 07:30:00,
2013-02-15 01:40:00,37.3,36.0,30.05,North,349,0.0,0.0,95,0.00,,,0.00,Wunderground v.1.15,2013-02-15 07:40:00,
2013-02-15 01:45:00,37.3,36.3,30.05,North,349,0.0,0.0,96,0.00,,,0.00,Wunderground v.1.15,2013-02-15 07:45:00,
2013-02-15 01:55:00,37.3,36.0,30.05,North,349,0.0,0.0,95,0.00,,,0.00,Wunderground v.1.15,2013-02-15 07:55:00,
2013-02-15 02:00:00,37.3,36.0,30.05,North,349,0.0,0.0,95,0.00,,,0.00,Wunderground v.1.15,2013-02-15 08:00:00,
2013-02-15 02:10:00,37.3,36.3,30.05,North,349,0.0,0.0,96,0.00,,,0.00,Wunderground v.1.15,2013-02-15 08:10:00,
2013-02-15 02:15:00,37.3,36.3,30.05,North,349,0.0,0.0,96,0.00,,,0.00,Wunderground v.1.15,2013-02-15 08:15:00,
2013-02-15 02:25:00,37.3,36.3,30.05,North,349,0.0,0.0,96,0.00,,,0.00,Wunderground v.1.15,2013-02-15 08:25:00,
2013-02-15 02:30:00,37.2,36.2,30.05,North,349,0.0,0.0,96,0.00,,,0.00,Wunderground v.1.15,2013-02-15 08:30:00,
2013-02-15 02:40:00,37.2,36.2,30.05,North,349,0.0,0.0,96,0.00,,,0.00,Wunderground v.1.15,2013-02-15 08:40:00,
2013-02-15 02:45:00,36.8,35.8,30.04,North,349,0.0,0.0,96,0.00,,,0.00,Wunderground v.1.15,2013-02-15 08:45:00,
2013-02-15 02:55:00,36.8,35.8,30.04,North,349,0.0,0.0,96,0.00,,,0.00,Wunderground v.1.15,2013-02-15 08:55:00,
2013-02-15 03:00:00,36.6,35.6,30.04,North,349,0.0,0.0,96,0.00,,,0.00,Wunderground v.1.15,2013-02-15 09:00:00,
2013-02-15 03:10:00,36.5,35.5,30.04,North,349,0.0,0.0,96,0.00,,,0.00,Wunderground v.1.15,2013-02-15 09:10:00,
2013-02-15 03:15:00,36.5,35.5,30.04,North,349,0.0,0.0,96,0.00,,,0.00,Wunderground v.1.15,2013-02-15 09:15:00,
2013-02-15 03:25:00,36.5,35.5,30.04,North,349,0.0,0.0,96,0.00,,,0.00,Wunderground v.1.15,2013-02-15 09:25:00,
2013-02-15 03:30:00,36.3,35.3,30.04,North,349,0.0,0.0,96,0.00,,,0.00,Wunderground v.1.15,2013-02-15 09:30:00,
2013-02-15 03:40:00,36.0,35.0,30.04,North,349,0.0,0.0,96,0.00,,,0.00,Wunderground v.1.15,2013-02-15 09:40:00,
2013-02-15 03:45:00,35.8,34.8,30.05,North,349,0.0,0.0,96,0.00,,,0.00,Wunderground v.1.15,2013-02-15 09:45:00,
2013-02-15 03:55:00,35.5,34.5,30.05,North,349,0.0,0.0,96,0.00,,,0.00,Wunderground v.1.15,2013-02-15 09:55:00,
2013-02-15 04:00:00,35.3,34.3,30.05,North,349,0.0,0.0,96,0.00,,,0.00,Wunderground v.1.15,2013-02-15 10:00:00,
2013-02-15 04:10:00,35.6,34.6,30.05,North,349,0.0,0.0,96,0.00,,,0.00,Wunderground v.1.15,2013-02-15 10:10:00,
2013-02-15 04:20:00,35.9,34.9,30.06,North,349,0.0,0.0,96,0.00,,,0.00,Wunderground v.1.15,2013-02-15 10:20:00,
2013-02-15 04:25:00,35.9,34.9,30.06,North,349,0.0,0.0,96,0.00,,,0.00,Wunderground v.1.15,2013-02-15 10:25:00,
2013-02-15 04:30:00,35.8,34.8,30.05,North,349,0.0,0.0,96,0.00,,,0.00,Wunderground v.1.15,2013-02-15 10:30:00,
2013-02-15 04:40:00,35.5,34.5,30.05,North,349,0.0,0.0,96,0.00,,,0.00,Wunderground v.1.15,2013-02-15 10:40:00,
2013-02-15 04:45:00,35.5,34.5,30.05,North,349,0.0,0.0,96,0.00,,,0.00,Wunderground v.1.15,2013-02-15 10:45:00,
2013-02-15 04:55:00,35.8,34.8,30.05,North,349,0.0,0.0,96,0.00,,,0.00,Wunderground v.1.15,2013-02-15 10:55:00,
2013-02-15 05:00:00,35.9,34.9,30.05,North,349,0.0,0.0,96,0.00,,,0.00,Wunderground v.1.15,2013-02-15 11:00:00,
2013-02-15 05:10:00,35.9,34.9,30.05,North,349,0.0,0.0,96,0.00,,,0.00,Wunderground v.1.15,2013-02-15 11:10:00,
2013-02-15 05:20:00,35.8,34.8,30.06,North,349,0.0,0.0,96,0.00,,,0.00,Wunderground v.1.15,2013-02-15 11:20:00,
2013-02-15 05:25:00,35.8,34.8,30.06,North,349,0.0,0.0,96,0.00,,,0.00,Wunderground v.1.15,2013-02-15 11:25:00,
2013-02-15 05:30:00,35.9,34.9,30.06,North,349,0.0,0.0,96,0.00,,,0.00,Wunderground v.1.15,2013-02-15 11:30:00,
2013-02-15 05:40:00,35.6,34.6,30.06,North,349,0.0,0.0,96,0.00,,,0.00,Wunderground v.1.15,2013-02-15 11:40:00,
2013-02-15 05:50:00,35.3,34.3,30.07,North,349,0.0,0.0,96,0.00,,,0.00,Wunderground v.1.15,2013-02-15 11:50:00,
2013-02-15 05:55:00,35.2,34.2,30.07,North,349,0.0,0.0,96,0.00,,,0.00,Wunderground v.1.15,2013-02-15 11:55:00,
2013-02-15 06:00:00,35.2,34.2,30.07,North,349,0.0,0.0,96,0.00,,,0.00,Wunderground v.1.15,2013-02-15 12:00:00,
2013-02-15 06:10:00,35.0,34.0,30.07,North,349,0.0,0.0,96,0.00,,,0.00,Wunderground v.1.15,2013-02-15 12:10:00,
2013-02-15 06:15:00,35.0,34.0,30.08,North,349,0.0,0.0,96,0.00,,,0.00,Wunderground v.1.15,2013-02-15 12:15:00,
2013-02-15 06:25:00,34.9,33.9,30.08,North,349,0.0,0.0,96,0.00,,,0.00,Wunderground v.1.15,2013-02-15 12:25:00,
2013-02-15 06:35:00,35.0,34.0,30.08,North,349,0.0,0.0,96,0.00,,,0.00,Wunderground v.1.15,2013-02-15 12:35:00,
2013-02-15 06:40:00,35.0,34.0,30.08,North,349,0.0,0.0,96,0.00,,,0.00,Wunderground v.1.15,2013-02-15 12:40:00,
2013-02-15 06:45:00,35.0,34.0,30.09,North,349,0.0,0.0,96,0.00,,,0.00,Wunderground v.1.15,2013-02-15 12:45:00,
2013-02-15 06:55:00,35.2,34.2,30.09,North,349,0.0,0.0,96,0.00,,,0.00,Wunderground v.1.15,2013-02-15 12:55:00,
2013-02-15 07:00:00,35.3,34.3,30.09,North,349,0.0,0.0,96,0.00,,,0.00,Wunderground v.1.15,2013-02-15 13:00:00,
2013-02-15 07:10:00,35.5,34.5,30.09,North,349,0.0,0.0,96,0.00,,,0.00,Wunderground v.1.15,2013-02-15 13:10:00,
2013-02-15 07:15:00,35.6,34.8,30.09,North,349,0.0,0.0,97,0.00,,,0.00,Wunderground v.1.15,2013-02-15 13:15:00,
2013-02-15 07:25:00,35.8,35.0,30.09,North,349,0.0,0.0,97,0.00,,,0.00,Wunderground v.1.15,2013-02-15 13:25:00,
2013-02-15 07:30:00,36.0,35.2,30.10,North,349,0.0,0.0,97,0.00,,,0.00,Wunderground v.1.15,2013-02-15 13:30:00,
2013-02-15 07:40:00,38.2,37.9,30.10,North,349,0.0,0.0,99,0.00,,,0.00,Wunderground v.1.15,2013-02-15 13:40:00,
2013-02-15 07:45:00,40.1,39.8,30.10,North,349,0.0,0.0,99,0.00,,,0.00,Wunderground v.1.15,2013-02-15 13:45:00,
2013-02-15 07:55:00,43.3,43.0,30.10,North,349,0.0,0.0,99,0.00,,,0.00,Wunderground v.1.15,2013-02-15 13:55:00,
2013-02-15 08:00:00,44.8,44.5,30.10,North,349,0.0,0.0,99,0.00,,,0.00,Wunderground v.1.15,2013-02-15 14:00:00,
2013-02-15 08:10:00,46.4,46.1,30.10,North,349,0.0,0.0,99,0.00,,,0.00,Wunderground v.1.15,2013-02-15 14:10:00,
2013-02-15 08:15:00,47.1,46.6,30.10,North,349,0.0,0.0,98,0.00,,,0.00,Wunderground v.1.15,2013-02-15 14:15:00,
2013-02-15 08:25:00,47.9,47.1,30.10,North,349,0.0,0.0,97,0.00,,,0.00,Wunderground v.1.15,2013-02-15 14:25:00,
2013-02-15 08:30:00,48.2,47.4,30.11,North,349,0.0,0.0,97,0.00,,,0.00,Wunderground v.1.15,2013-02-15 14:30:00,
2013-02-15 08:40:00,49.2,48.1,30.11,North,352,0.0,0.0,96,0.00,,,0.00,Wunderground v.1.15,2013-02-15 14:40:00,
2013-02-15 08:45:00,49.6,48.2,30.11,North,352,0.0,0.0,95,0.00,,,0.00,Wunderground v.1.15,2013-02-15 14:45:00,
2013-02-15 08:55:00,51.3,47.9,30.11,North,352,0.0,0.0,88,0.00,,,0.00,Wunderground v.1.15,2013-02-15 14:55:00,
2013-02-15 09:00:00,52.2,46.9,30.11,NE,38,0.0,0.0,82,0.00,,,0.00,Wunderground v.1.15,2013-02-15 15:00:00,
2013-02-15 09:10:00,53.3,44.9,30.11,North,0,0.0,0.0,73,0.00,,,0.00,Wunderground v.1.15,2013-02-15 15:10:00,
2013-02-15 09:20:00,54.7,43.2,30.12,North,352,0.0,0.0,65,0.00,,,0.00,Wunderground v.1.15,2013-02-15 15:20:00,
2013-02-15 09:25:00,55.4,41.7,30.12,North,0,0.0,0.0,60,0.00,,,0.00,Wunderground v.1.15,2013-02-15 15:25:00,
2013-02-15 09:35:00,56.6,42.9,30.11,North,0,0.0,0.0,60,0.00,,,0.00,Wunderground v.1.15,2013-02-15 15:35:00,
2013-02-15 09:40:00,57.3,42.2,30.11,North,0,0.0,0.0,57,0.00,,,0.00,Wunderground v.1.15,2013-02-15 15:40:00,
2013-02-15 09:45:00,58.0,42.4,30.10,North,6,0.0,0.0,56,0.00,,,0.00,Wunderground v.1.15,2013-02-15 15:45:00,
2013-02-15 09:55:00,58.7,41.6,30.10,North,0,0.0,0.0,53,0.00,,,0.00,Wunderground v.1.15,2013-02-15 15:55:00,
2013-02-15 10:00:00,58.7,41.6,30.10,North,0,0.0,0.0,53,0.00,,,0.00,Wunderground v.1.15,2013-02-15 16:00:00,
2013-02-15 10:10:00,59.5,41.3,30.10,North,0,0.0,0.0,51,0.00,,,0.00,Wunderground v.1.15,2013-02-15 16:10:00,
2013-02-15 10:15:00,59.3,40.7,30.10,East,83,0.0,0.0,50,0.00,,,0.00,Wunderground v.1.15,2013-02-15 16:15:00,
2013-02-15 10:25:00,59.2,40.0,30.10,North,11,1.0,1.0,49,0.00,,,0.00,Wunderground v.1.15,2013-02-15 16:25:00,
2013-02-15 10:30:00,59.3,40.1,30.11,NE,44,0.0,0.0,49,0.00,,,0.00,Wunderground v.1.15,2013-02-15 16:30:00,
2013-02-15 10:40:00,59.9,40.1,30.11,East,95,0.0,0.0,48,0.00,,,0.00,Wunderground v.1.15,2013-02-15 16:40:00,
2013-02-15 10:45:00,60.2,39.3,30.10,East,99,0.0,0.0,46,0.00,,,0.00,Wunderground v.1.15,2013-02-15 16:45:00,
2013-02-15 10:55:00,60.4,38.9,30.10,North,0,0.0,0.0,45,0.00,,,0.00,Wunderground v.1.15,2013-02-15 16:55:00,
2013-02-15 11:00:00,60.7,39.2,30.09,NW,322,0.0,0.0,45,0.00,,,0.00,Wunderground v.1.15,2013-02-15 17:00:00,
2013-02-15 11:10:00,61.2,38.5,30.09,North,359,0.0,0.0,43,0.00,,,0.00,Wunderground v.1.15,2013-02-15 17:10:00,
2013-02-15 11:20:00,61.3,39.2,30.08,SE,143,0.0,0.0,44,0.00,,,0.00,Wunderground v.1.15,2013-02-15 17:20:00,
2013-02-15 11:30:00,61.5,38.2,30.08,SE,138,0.0,0.0,42,0.00,,,0.00,Wunderground v.1.15,2013-02-15 17:30:00,
2013-02-15 11:40:00,61.3,39.2,30.08,ENE,61,0.0,0.0,44,0.00,,,0.00,Wunderground v.1.15,2013-02-15 17:40:00,
2013-02-15 11:45:00,61.5,37.6,30.07,NE,37,1.0,1.0,41,0.00,,,0.00,Wunderground v.1.15,2013-02-15 17:45:00,
2013-02-15 11:55:00,61.8,38.4,30.07,East,95,0.0,0.0,42,0.00,,,0.00,Wunderground v.1.15,2013-02-15 17:55:00,
2013-02-15 12:00:00,62.3,37.7,30.06,North,7,0.0,0.0,40,0.00,,,0.00,Wunderground v.1.15,2013-02-15 18:00:00,
2013-02-15 12:10:00,62.4,39.0,30.06,North,0,0.0,0.0,42,0.00,,,0.00,Wunderground v.1.15,2013-02-15 18:10:00,
2013-02-15 12:15:00,62.4,37.7,30.05,North,0,0.0,0.0,40,0.00,,,0.00,Wunderground v.1.15,2013-02-15 18:15:00,
2013-02-15 12:25:00,62.4,37.1,30.05,SSW,195,0.0,0.0,39,0.00,,,0.00,Wunderground v.1.15,2013-02-15 18:25:00,
2013-02-15 12:30:00,63.2,38.5,30.04,SSW,195,0.0,0.0,40,0.00,,,0.00,Wunderground v.1.15,2013-02-15 18:30:00,
2013-02-15 12:40:00,64.8,37.9,30.04,SSW,195,0.0,0.0,37,0.00,,,0.00,Wunderground v.1.15,2013-02-15 18:40:00,
2013-02-15 12:45:00,65.2,38.9,30.04,SSW,195,0.0,0.0,38,0.00,,,0.00,Wunderground v.1.15,2013-02-15 18:45:00,
2013-02-15 12:55:00,64.7,37.8,30.04,NNW,332,0.0,0.0,37,0.00,,,0.00,Wunderground v.1.15,2013-02-15 18:55:00,
2013-02-15 13:00:00,65.3,39.0,30.03,NNE,13,0.0,0.0,38,0.00,,,0.00,Wunderground v.1.15,2013-02-15 19:00:00,
2013-02-15 13:10:00,64.7,36.4,30.03,NNW,347,0.0,0.0,35,0.00,,,0.00,Wunderground v.1.15,2013-02-15 19:10:00,
2013-02-15 13:15:00,64.8,36.5,30.02,East,85,0.0,0.0,35,0.00,,,0.00,Wunderground v.1.15,2013-02-15 19:15:00,
2013-02-15 13:25:00,64.5,37.6,30.02,East,89,0.0,0.0,37,0.00,,,0.00,Wunderground v.1.15,2013-02-15 19:25:00,
2013-02-15 13:35:00,65.3,36.9,30.01,SSE,161,0.0,0.0,35,0.00,,,0.00,Wunderground v.1.15,2013-02-15 19:35:00,
2013-02-15 13:40:00,65.3,34.7,30.01,North,359,1.0,1.0,32,0.00,,,0.00,Wunderground v.1.15,2013-02-15 19:40:00,
2013-02-15 13:50:00,65.6,35.7,30.01,North,0,0.0,0.0,33,0.00,,,0.00,Wunderground v.1.15,2013-02-15 19:50:00,
2013-02-15 13:55:00,65.5,37.1,30.01,North,0,0.0,0.0,35,0.00,,,0.00,Wunderground v.1.15,2013-02-15 19:55:00,
2013-02-15 14:00:00,65.2,36.8,30.00,East,100,0.0,0.0,35,0.00,,,0.00,Wunderground v.1.15,2013-02-15 20:00:00,
2013-02-15 14:10:00,65.8,37.4,30.00,SW,224,1.0,1.0,35,0.00,,,0.00,Wunderground v.1.15,2013-02-15 20:10:00,
2013-02-15 14:15:00,66.1,36.9,30.00,WNW,301,1.0,1.0,34,0.00,,,0.00,Wunderground v.1.15,2013-02-15 20:15:00,
2013-02-15 14:25:00,66.1,35.4,30.00,WNW,289,1.0,4.0,32,0.00,,,0.00,Wunderground v.1.15,2013-02-15 20:25:00,
2013-02-15 14:30:00,65.6,35.7,30.00,WSW,248,3.0,3.0,33,0.00,,,0.00,Wunderground v.1.15,2013-02-15 20:30:00,
2013-02-15 14:40:00,66.0,34.5,30.00,WSW,253,1.0,7.0,31,0.00,,,0.00,Wunderground v.1.15,2013-02-15 20:40:00,
2013-02-15 14:45:00,66.0,34.5,29.99,WNW,298,1.0,7.0,31,0.00,,,0.00,Wunderground v.1.15,2013-02-15 20:45:00,
2013-02-15 14:55:00,65.8,35.1,29.99,WNW,292,1.0,1.0,32,0.00,,,0.00,Wunderground v.1.15,2013-02-15 20:55:00,
2013-02-15 15:05:00,65.8,35.1,29.99,North,359,0.0,0.0,32,0.00,,,0.00,Wunderground v.1.15,2013-02-15 21:05:00,
2013-02-15 15:10:00,66.1,35.4,29.99,WNW,284,0.0,0.0,32,0.00,,,0.00,Wunderground v.1.15,2013-02-15 21:10:00,
2013-02-15 15:15:00,66.4,35.6,29.98,NW,316,0.0,6.0,32,0.00,,,0.00,Wunderground v.1.15,2013-02-15 21:15:00,
2013-02-15 15:25:00,66.1,36.1,29.98,NW,316,1.0,1.0,33,0.00,,,0.00,Wunderground v.1.15,2013-02-15 21:25:00,
2013-02-15 15:30:00,66.1,36.1,29.99,NNW,337,0.0,1.0,33,0.00,,,0.00,Wunderground v.1.15,2013-02-15 21:30:00,
2013-02-15 15:40:00,65.6,34.9,29.99,North,349,1.0,9.0,32,0.00,,,0.00,Wunderground v.1.15,2013-02-15 21:40:00,
2013-02-15 15:45:00,65.3,35.4,29.99,NNW,335,1.0,1.0,33,0.00,,,0.00,Wunderground v.1.15,2013-02-15 21:45:00,
2013-02-15 15:55:00,65.8,35.1,29.99,NNW,343,0.0,0.0,32,0.00,,,0.00,Wunderground v.1.15,2013-02-15 21:55:00,
2013-02-15 16:00:00,66.0,35.3,29.98,NNW,346,0.0,0.0,32,0.00,,,0.00,Wunderground v.1.15,2013-02-15 22:00:00,
2013-02-15 16:10:00,65.8,42.1,29.98,WSW,256,0.0,0.0,42,0.00,,,0.00,Wunderground v.1.15,2013-02-15 22:10:00,
2013-02-15 16:15:00,65.0,43.7,29.99,WSW,258,1.0,7.0,46,0.00,,,0.00,Wunderground v.1.15,2013-02-15 22:15:00,
2013-02-15 16:25:00,62.4,44.0,29.99,West,267,4.0,6.0,51,0.00,,,0.00,Wunderground v.1.15,2013-02-15 22:25:00,
2013-02-15 16:35:00,61.0,44.2,29.99,SW,216,1.0,1.0,54,0.00,,,0.00,Wunderground v.1.15,2013-02-15 22:35:00,
2013-02-15 16:40:00,60.9,44.6,29.99,SW,230,0.0,1.0,55,0.00,,,0.00,Wunderground v.1.15,2013-02-15 22:40:00,
2013-02-15 16:45:00,60.4,44.2,29.99,SSW,206,1.0,1.0,55,0.00,,,0.00,Wunderground v.1.15,2013-02-15 22:45:00,
2013-02-15 16:55:00,59.6,43.9,29.99,WSW,247,2.0,2.0,56,0.00,,,0.00,Wunderground v.1.15,2013-02-15 22:55:00,
2013-02-15 17:00:00,59.3,44.5,29.99,WSW,239,1.0,1.0,58,0.00,,,0.00,Wunderground v.1.15,2013-02-15 23:00:00,
2013-02-15 17:10:00,58.6,43.9,29.99,SW,222,1.0,1.0,58,0.00,,,0.00,Wunderground v.1.15,2013-02-15 23:10:00,
2013-02-15 17:15:00,58.1,43.8,30.00,WSW,239,1.0,1.0,59,0.00,,,0.00,Wunderground v.1.15,2013-02-15 23:15:00,
2013-02-15 17:25:00,57.5,44.1,30.00,WSW,243,0.0,1.0,61,0.00,,,0.00,Wunderground v.1.15,2013-02-15 23:25:00,
2013-02-15 17:30:00,57.0,44.1,30.00,SW,230,0.0,0.0,62,0.00,,,0.00,Wunderground v.1.15,2013-02-15 23:30:00,
2013-02-15 17:40:00,56.6,44.1,30.00,SW,230,0.0,0.0,63,0.00,,,0.00,Wunderground v.1.15,2013-02-15 23:40:00,
2013-02-15 17:45:00,56.3,44.3,30.00,SW,230,0.0,0.0,64,0.00,,,0.00,Wunderground v.1.15,2013-02-15 23:45:00,
2013-02-15 17:55:00,55.6,44.0,30.00,SW,230,0.0,0.0,65,0.00,,,0.00,Wunderground v.1.15,2013-02-15 23:55:00,
2013-02-15 18:00:00,55.1,44.3,30.00,SW,230,0.0,0.0,67,0.00,,,0.00,Wunderground v.1.15,2013-02-16 00:00:00,
2013-02-15 18:10:00,54.2,44.6,30.00,SW,230,0.0,0.0,70,0.00,,,0.00,Wunderground v.1.15,2013-02-16 00:10:00,
2013-02-15 18:15:00,53.5,44.3,30.00,SW,230,0.0,0.0,71,0.00,,,0.00,Wunderground v.1.15,2013-02-16 00:15:00,
2013-02-15 18:25:00,52.3,44.3,30.00,SW,230,0.0,0.0,74,0.00,,,0.00,Wunderground v.1.15,2013-02-16 00:25:00,
2013-02-15 18:35:00,51.4,44.1,30.01,SW,232,0.0,0.0,76,0.00,,,0.00,Wunderground v.1.15,2013-02-16 00:35:00,
2013-02-15 18:40:00,51.1,44.1,30.01,SW,232,0.0,0.0,77,0.00,,,0.00,Wunderground v.1.15,2013-02-16 00:40:00,
2013-02-15 18:45:00,50.7,44.1,30.01,SW,232,0.0,0.0,78,0.00,,,0.00,Wunderground v.1.15,2013-02-16 00:45:00,
2013-02-15 18:55:00,50.4,43.8,30.01,SW,232,0.0,0.0,78,0.00,,,0.00,Wunderground v.1.15,2013-02-16 00:55:00,
2013-02-15 19:00:00,50.1,43.5,30.02,SW,232,0.0,0.0,78,0.00,,,0.00,Wunderground v.1.15,2013-02-16 01:00:00,
2013-02-15 19:10:00,49.8,43.5,30.02,SW,232,0.0,0.0,79,0.00,,,0.00,Wunderground v.1.15,2013-02-16 01:10:00,
2013-02-15 19:15:00,49.6,43.4,30.02,SW,232,0.0,0.0,79,0.00,,,0.00,Wunderground v.1.15,2013-02-16 01:15:00,
2013-02-15 19:25:00,49.4,43.8,30.02,SW,232,0.0,0.0,81,0.00,,,0.00,Wunderground v.1.15,2013-02-16 01:25:00,
2013-02-15 19:30:00,49.4,43.8,30.02,SW,232,0.0,0.0,81,0.00,,,0.00,Wunderground v.1.15,2013-02-16 01:30:00,
2013-02-15 19:40:00,48.5,42.9,30.02,SW,232,0.0,0.0,81,0.00,,,0.00,Wunderground v.1.15,2013-02-16 01:40:00,
2013-02-15 19:45:00,48.2,43.3,30.02,SW,232,0.0,0.0,83,0.00,,,0.00,Wunderground v.1.15,2013-02-16 01:45:00,
2013-02-15 19:55:00,47.9,43.3,30.02,SW,232,0.0,0.0,84,0.00,,,0.00,Wunderground v.1.15,2013-02-16 01:55:00,
2013-02-15 20:00:00,47.7,43.1,30.03,SW,232,0.0,0.0,84,0.00,,,0.00,Wunderground v.1.15,2013-02-16 02:00:00,
2013-02-15 20:10:00,47.4,42.8,30.03,SW,232,0.0,0.0,84,0.00,,,0.00,Wunderground v.1.15,2013-02-16 02:10:00,
2013-02-15 20:15:00,47.4,42.8,30.03,SW,232,0.0,0.0,84,0.00,,,0.00,Wunderground v.1.15,2013-02-16 02:15:00,
2013-02-15 20:25:00,47.4,42.8,30.03,SW,232,0.0,0.0,84,0.00,,,0.00,Wunderground v.1.15,2013-02-16 02:25:00,
2013-02-15 20:30:00,47.3,42.7,30.03,SW,232,0.0,0.0,84,0.00,,,0.00,Wunderground v.1.15,2013-02-16 02:30:00,
2013-02-15 20:40:00,47.3,42.7,30.03,SW,232,0.0,0.0,84,0.00,,,0.00,Wunderground v.1.15,2013-02-16 02:40:00,
2013-02-15 20:45:00,47.0,42.7,30.03,SW,232,0.0,0.0,85,0.00,,,0.00,Wunderground v.1.15,2013-02-16 02:45:00,
2013-02-15 20:55:00,47.0,42.7,30.03,SW,232,0.0,0.0,85,0.00,,,0.00,Wunderground v.1.15,2013-02-16 02:55:00,
2013-02-15 21:00:00,47.4,43.1,30.04,SW,232,0.0,0.0,85,0.00,,,0.00,Wunderground v.1.15,2013-02-16 03:00:00,
2013-02-15 21:10:00,47.7,43.1,30.04,SW,232,0.0,0.0,84,0.00,,,0.00,Wunderground v.1.15,2013-02-16 03:10:00,
2013-02-15 21:15:00,47.7,43.1,30.04,SW,232,0.0,0.0,84,0.00,,,0.00,Wunderground v.1.15,2013-02-16 03:15:00,
2013-02-15 21:25:00,47.7,43.1,30.04,SW,232,0.0,0.0,84,0.00,,,0.00,Wunderground v.1.15,2013-02-16 03:25:00,
2013-02-15 21:30:00,47.7,43.1,30.04,SW,232,0.0,0.0,84,0.00,,,0.00,Wunderground v.1.15,2013-02-16 03:30:00,
2013-02-15 21:40:00,47.9,43.3,30.04,SW,232,0.0,0.0,84,0.00,,,0.00,Wunderground v.1.15,2013-02-16 03:40:00,
2013-02-15 21:50:00,47.7,43.4,30.04,SW,232,0.0,0.0,85,0.00,,,0.00,Wunderground v.1.15,2013-02-16 03:50:00,
2013-02-15 21:55:00,47.7,43.4,30.04,SW,232,0.0,0.0,85,0.00,,,0.00,Wunderground v.1.15,2013-02-16 03:55:00,
2013-02-15 22:00:00,47.4,43.1,30.04,SW,232,0.0,0.0,85,0.00,,,0.00,Wunderground v.1.15,2013-02-16 04:00:00,
2013-02-15 22:10:00,47.6,43.3,30.04,SW,232,0.0,0.0,85,0.00,,,0.00,Wunderground v.1.15,2013-02-16 04:10:00,
2013-02-15 22:20:00,48.0,43.7,30.05,North,357,0.0,0.0,85,0.00,,,0.00,Wunderground v.1.15,2013-02-16 04:20:00,
2013-02-15 22:25:00,48.6,43.4,30.05,North,0,0.0,0.0,82,0.00,,,0.00,Wunderground v.1.15,2013-02-16 04:25:00,
2013-02-15 22:30:00,49.8,43.2,30.05,North,350,0.0,0.0,78,0.00,,,0.00,Wunderground v.1.15,2013-02-16 04:30:00,
2013-02-15 22:40:00,50.7,42.0,30.05,North,349,1.0,1.0,72,0.00,,,0.00,Wunderground v.1.15,2013-02-16 04:40:00,
2013-02-15 22:45:00,51.3,41.5,30.05,NNW,347,2.0,4.0,69,0.00,,,0.00,Wunderground v.1.15,2013-02-16 04:45:00,
2013-02-15 22:55:00,51.4,41.2,30.05,North,0,1.0,6.0,68,0.00,,,0.00,Wunderground v.1.15,2013-02-16 04:55:00,
2013-02-15 23:00:00,51.3,41.1,30.05,North,359,1.0,4.0,68,0.00,,,0.00,Wunderground v.1.15,2013-02-16 05:00:00,
2013-02-15 23:05:00,51.3,41.1,30.05,North,356,2.0,4.0,68,0.00,,,0.00,Wunderground v.1.15,2013-02-16 05:05:00,
2013-02-15 23:10:00,51.3,41.1,30.05,North,0,2.0,2.0,68,0.00,,,0.00,Wunderground v.1.15,2013-02-16 05:10:00,
2013-02-15 23:15:00,51.1,40.9,30.04,North,359,1.0,2.0,68,0.00,,,0.00,Wunderground v.1.15,2013-02-16 05:15:00,
2013-02-15 23:25:00,51.0,40.4,30.04,NNW,347,1.0,2.0,67,0.00,,,0.00,Wunderground v.1.15,2013-02-16 05:25:00,
2013-02-15 23:30:00,51.0,40.4,30.04,North,357,1.0,1.0,67,0.00,,,0.00,Wunderground v.1.15,2013-02-16 05:30:00,
2013-02-15 23:40:00,50.8,40.2,30.04,North,359,0.0,0.0,67,0.00,,,0.00,Wunderground v.1.15,2013-02-16 05:40:00,
2013-02-15 23:45:00,50.7,40.1,30.04,North,357,1.0,1.0,67,0.00,,,0.00,Wunderground v.1.15,2013-02-16 05:45:00,
2013-02-15 23:50:00,50.7,40.1,30.04,North,0,1.0,1.0,67,0.00,,,0.00,Wunderground v.1.15,2013-02-16 05:50:00,
2013-02-15 23:55:00,50.5,39.9,30.04,North,359,0.0,1.0,67,0.00,,,0.00,Wunderground v.1.15,2013-02-16 05:55:00,